sensor_id;sensor_type;location;lat;lon;timestamp;pressure;altitude;pressure_sealevel;temperature;humidity
37202;BME280;37799;52.390;6.136;2024-03-23T00:53:23;100982.50;;;6.54;100.00
37202;BME280;37799;52.390;6.136;2024-03-23T00:55:48;100986.59;;;6.75;100.00
37202;BME280;37799;52.390;6.136;2024-03-23T00:58:13;100991.88;;;6.60;100.00
37202;BME280;37799;52.390;6.136;2024-03-23T01:00:39;100985.84;;;6.65;100.00
37202;BME280;37799;52.390;6.136;2024-03-23T01:03:04;100990.19;;;6.57;100.00
37202;BME280;37799;52.390;6.136;2024-03-23T01:05:30;100981.69;;;6.44;100.00
37202;BME280;37799;52.390;6.136;2024-03-23T01:07:55;100977.38;;;6.51;100.00
37202;BME280;37799;52.390;6.136;2024-03-23T01:10:20;100988.56;;;6.44;100.00
37202;BME280;37799;52.390;6.136;2024-03-23T01:12:45;100986.06;;;6.33;100.00
37202;BME280;37799;52.390;6.136;2024-03-23T01:15:11;100978.28;;;6.42;100.00
37202;BME280;37799;52.390;6.136;2024-03-23T01:17:36;100982.50;;;6.49;100.00
37202;BME280;37799;52.390;6.136;2024-03-23T01:20:02;100973.19;;;6.33;100.00
37202;BME280;37799;52.390;6.136;2024-03-23T01:22:28;100972.28;;;6.37;100.00
37202;BME280;37799;52.390;6.136;2024-03-23T01:24:53;100965.50;;;6.32;100.00
37202;BME280;37799;52.390;6.136;2024-03-23T01:27:18;100967.25;;;6.24;100.00
37202;BME280;37799;52.390;6.136;2024-03-23T01:29:43;100968.97;;;6.26;100.00
37202;BME280;37799;52.390;6.136;2024-03-23T01:32:09;100964.75;;;6.16;100.00
37202;BME280;37799;52.390;6.136;2024-03-23T01:34:34;100970.78;;;6.04;100.00
37202;BME280;37799;52.390;6.136;2024-03-23T01:36:59;100954.59;;;5.90;100.00
37202;BME280;37799;52.390;6.136;2024-03-23T01:39:25;100941.72;;;5.85;100.00
37202;BME280;37799;52.390;6.136;2024-03-23T01:41:50;100943.44;;;5.86;100.00
37202;BME280;37799;52.390;6.136;2024-03-23T01:44:16;100941.81;;;5.73;100.00
37202;BME280;37799;52.390;6.136;2024-03-23T01:46:42;100931.47;;;5.79;100.00
37202;BME280;37799;52.390;6.136;2024-03-23T01:49:08;100926.34;;;5.79;100.00
37202;BME280;37799;52.390;6.136;2024-03-23T01:51:35;100924.66;;;5.69;100.00
37202;BME280;37799;52.390;6.136;2024-03-23T01:54:04;100925.59;;;5.60;100.00
37202;BME280;37799;52.390;6.136;2024-03-23T01:56:31;100917.91;;;5.50;100.00
37202;BME280;37799;52.390;6.136;2024-03-23T01:59:04;100914.50;;;5.42;100.00
37202;BME280;37799;52.390;6.136;2024-03-23T02:01:30;100910.25;;;5.33;100.00
37202;BME280;37799;52.390;6.136;2024-03-23T02:03:56;100909.41;;;5.32;100.00
37202;BME280;37799;52.390;6.136;2024-03-23T02:06:22;100911.13;;;5.30;100.00
37202;BME280;37799;52.390;6.136;2024-03-23T02:08:47;100907.72;;;5.19;100.00
37202;BME280;37799;52.390;6.136;2024-03-23T02:11:13;100902.63;;;5.10;100.00
37202;BME280;37799;52.390;6.136;2024-03-23T02:13:38;100900.06;;;5.04;100.00
37202;BME280;37799;52.390;6.136;2024-03-23T02:16:05;100889.81;;;5.02;100.00
37202;BME280;37799;52.390;6.136;2024-03-23T02:18:30;100900.09;;;4.99;100.00
37202;BME280;37799;52.390;6.136;2024-03-23T02:20:55;100906.06;;;5.01;100.00
37202;BME280;37799;52.390;6.136;2024-03-23T02:23:21;100895.78;;;5.06;100.00
37202;BME280;37799;52.390;6.136;2024-03-23T02:25:46;100902.63;;;5.06;100.00
37202;BME280;37799;52.390;6.136;2024-03-23T02:28:12;100895.78;;;5.06;100.00
37202;BME280;37799;52.390;6.136;2024-03-23T02:30:38;100892.34;;;5.13;100.00
37202;BME280;37799;52.390;6.136;2024-03-23T02:33:04;100881.25;;;5.03;100.00
37202;BME280;37799;52.390;6.136;2024-03-23T02:35:29;100885.50;;;5.17;100.00
37202;BME280;37799;52.390;6.136;2024-03-23T02:37:55;100887.25;;;5.09;100.00
37202;BME280;37799;52.390;6.136;2024-03-23T02:40:22;100885.47;;;5.24;100.00
37202;BME280;37799;52.390;6.136;2024-03-23T02:42:47;100882.00;;;5.31;100.00
37202;BME280;37799;52.390;6.136;2024-03-23T02:45:13;100874.38;;;5.16;100.00
37202;BME280;37799;52.390;6.136;2024-03-23T02:47:38;100865.78;;;5.20;100.00
37202;BME280;37799;52.390;6.136;2024-03-23T02:50:04;100870.09;;;5.17;100.00
37202;BME280;37799;52.390;6.136;2024-03-23T02:52:30;100863.28;;;5.08;100.00
37202;BME280;37799;52.390;6.136;2024-03-23T02:54:56;100858.97;;;5.15;100.00
37202;BME280;37799;52.390;6.136;2024-03-23T02:57:21;100861.56;;;5.06;100.00
37202;BME280;37799;52.390;6.136;2024-03-23T02:59:47;100865.78;;;5.25;100.00
37202;BME280;37799;52.390;6.136;2024-03-23T03:02:13;100865.00;;;5.09;100.00
37202;BME280;37799;52.390;6.136;2024-03-23T03:04:38;100863.28;;;5.08;100.00
37202;BME280;37799;52.390;6.136;2024-03-23T03:07:04;100859.03;;;5.01;100.00
37202;BME280;37799;52.390;6.136;2024-03-23T03:09:29;100867.59;;;4.97;100.00
37202;BME280;37799;52.390;6.136;2024-03-23T03:11:55;100865.03;;;4.97;100.00
37202;BME280;37799;52.390;6.136;2024-03-23T03:14:20;100855.66;;;4.79;100.00
37202;BME280;37799;52.390;6.136;2024-03-23T03:16:45;100865.03;;;4.88;100.00
37202;BME280;37799;52.390;6.136;2024-03-23T03:19:11;100866.75;;;4.96;100.00
37202;BME280;37799;52.390;6.136;2024-03-23T03:21:36;100862.47;;;4.82;100.00
37202;BME280;37799;52.390;6.136;2024-03-23T03:24:02;100864.16;;;4.93;100.00
37202;BME280;37799;52.390;6.136;2024-03-23T03:26:27;100859.94;;;4.83;100.00
37202;BME280;37799;52.390;6.136;2024-03-23T03:28:53;100864.22;;;4.75;100.00
37202;BME280;37799;52.390;6.136;2024-03-23T03:31:18;100871.03;;;4.87;100.00
37202;BME280;37799;52.390;6.136;2024-03-23T03:33:44;100871.03;;;4.78;100.00
37202;BME280;37799;52.390;6.136;2024-03-23T03:36:10;100871.06;;;4.67;100.00
37202;BME280;37799;52.390;6.136;2024-03-23T03:38:35;100863.38;;;4.50;100.00
37202;BME280;37799;52.390;6.136;2024-03-23T03:41:01;100859.94;;;4.54;100.00
37202;BME280;37799;52.390;6.136;2024-03-23T03:43:27;100855.69;;;4.53;100.00
37202;BME280;37799;52.390;6.136;2024-03-23T03:45:56;100851.44;;;4.46;100.00
37202;BME280;37799;52.390;6.136;2024-03-23T03:48:22;100850.56;;;4.50;100.00
37202;BME280;37799;52.390;6.136;2024-03-23T03:50:47;100849.69;;;4.71;100.00
37202;BME280;37799;52.390;6.136;2024-03-23T03:53:12;100848.81;;;4.67;100.00
37202;BME280;37799;52.390;6.136;2024-03-23T03:55:38;100842.84;;;4.71;100.00
37202;BME280;37799;52.390;6.136;2024-03-23T03:58:03;100849.72;;;4.60;100.00
37202;BME280;37799;52.390;6.136;2024-03-23T04:00:30;100844.56;;;4.66;100.00
37202;BME280;37799;52.390;6.136;2024-03-23T04:02:55;100834.34;;;4.57;100.00
37202;BME280;37799;52.390;6.136;2024-03-23T04:05:20;100849.72;;;4.60;100.00
37202;BME280;37799;52.390;6.136;2024-03-23T04:07:46;100834.34;;;4.48;100.00
37202;BME280;37799;52.390;6.136;2024-03-23T04:10:11;100835.19;;;4.41;100.00
37202;BME280;37799;52.390;6.136;2024-03-23T04:12:37;100831.75;;;4.39;100.00
37202;BME280;37799;52.390;6.136;2024-03-23T04:15:02;100834.34;;;4.39;100.00
37202;BME280;37799;52.390;6.136;2024-03-23T04:17:29;100824.94;;;4.58;100.00
37202;BME280;37799;52.390;6.136;2024-03-23T04:19:59;100824.94;;;4.49;100.00
37202;BME280;37799;52.390;6.136;2024-03-23T04:22:25;100826.63;;;4.54;100.00
37202;BME280;37799;52.390;6.136;2024-03-23T04:24:53;100832.63;;;4.38;100.00
37202;BME280;37799;52.390;6.136;2024-03-23T04:27:19;100834.34;;;4.36;100.00
37202;BME280;37799;52.390;6.136;2024-03-23T04:29:48;100830.06;;;4.36;100.00
37202;BME280;37799;52.390;6.136;2024-03-23T04:32:14;100835.19;;;4.47;100.00
37202;BME280;37799;52.390;6.136;2024-03-23T04:34:39;100828.34;;;4.57;100.00
37202;BME280;37799;52.390;6.136;2024-03-23T04:37:05;100813.81;;;4.48;100.00
37202;BME280;37799;52.390;6.136;2024-03-23T04:39:30;100817.22;;;4.41;100.00
37202;BME280;37799;52.390;6.136;2024-03-23T04:41:55;100818.97;;;4.45;100.00
37202;BME280;37799;52.390;6.136;2024-03-23T04:44:21;100812.97;;;4.58;100.00
37202;BME280;37799;52.390;6.136;2024-03-23T04:46:46;100813.78;;;4.63;100.00
37202;BME280;37799;52.390;6.136;2024-03-23T04:49:11;100812.09;;;4.59;100.00
37202;BME280;37799;52.390;6.136;2024-03-23T04:51:37;100811.25;;;4.51;100.00
37202;BME280;37799;52.390;6.136;2024-03-23T04:54:06;100804.41;;;4.42;100.00
37202;BME280;37799;52.390;6.136;2024-03-23T04:56:32;100812.13;;;4.35;100.00
37202;BME280;37799;52.390;6.136;2024-03-23T04:58:58;100806.09;;;4.60;100.00
37202;BME280;37799;52.390;6.136;2024-03-23T05:01:26;100804.38;;;4.71;100.00
37202;BME280;37799;52.390;6.136;2024-03-23T05:03:52;100803.56;;;4.42;100.00
37202;BME280;37799;52.390;6.136;2024-03-23T05:06:18;100803.56;;;4.39;100.00
37202;BME280;37799;52.390;6.136;2024-03-23T05:08:43;100798.44;;;4.39;100.00
37202;BME280;37799;52.390;6.136;2024-03-23T05:11:08;100803.56;;;4.42;100.00
37202;BME280;37799;52.390;6.136;2024-03-23T05:13:34;100812.09;;;4.41;100.00
37202;BME280;37799;52.390;6.136;2024-03-23T05:15:59;100812.09;;;4.41;100.00
37202;BME280;37799;52.390;6.136;2024-03-23T05:18:24;100807.00;;;4.35;100.00
37202;BME280;37799;52.390;6.136;2024-03-23T05:20:56;100802.72;;;4.22;100.00
37202;BME280;37799;52.390;6.136;2024-03-23T05:23:22;100806.16;;;4.30;100.00
37202;BME280;37799;52.390;6.136;2024-03-23T05:25:47;100800.16;;;4.32;100.00
37202;BME280;37799;52.390;6.136;2024-03-23T05:28:13;100807.84;;;4.40;100.00
37202;BME280;37799;52.390;6.136;2024-03-23T05:30:38;100801.84;;;4.50;100.00
37202;BME280;37799;52.390;6.136;2024-03-23T05:33:05;100808.69;;;4.51;100.00
37202;BME280;37799;52.390;6.136;2024-03-23T05:35:30;100806.13;;;4.51;100.00
37202;BME280;37799;52.390;6.136;2024-03-23T05:37:57;100796.72;;;4.50;100.00
37202;BME280;37799;52.390;6.136;2024-03-23T05:40:23;100803.53;;;4.63;100.00
37202;BME280;37799;52.390;6.136;2024-03-23T05:42:49;100795.88;;;4.56;100.00
37202;BME280;37799;52.390;6.136;2024-03-23T05:45:14;100800.13;;;4.52;100.00
37202;BME280;37799;52.390;6.136;2024-03-23T05:47:39;100794.97;;;4.64;100.00
37202;BME280;37799;52.390;6.136;2024-03-23T05:50:05;100795.81;;;4.65;100.00
37202;BME280;37799;52.390;6.136;2024-03-23T05:52:30;100794.97;;;4.66;100.00
37202;BME280;37799;52.390;6.136;2024-03-23T05:54:55;100783.88;;;4.52;100.00
37202;BME280;37799;52.390;6.136;2024-03-23T05:57:21;100789.81;;;4.77;100.00
37202;BME280;37799;52.390;6.136;2024-03-23T05:59:46;100787.22;;;4.80;100.00
37202;BME280;37799;52.390;6.136;2024-03-23T06:02:11;100800.91;;;4.86;100.00
37202;BME280;37799;52.390;6.136;2024-03-23T06:04:37;100806.84;;;4.99;100.00
37202;BME280;37799;52.390;6.136;2024-03-23T06:07:02;100812.84;;;4.96;100.00
37202;BME280;37799;52.390;6.136;2024-03-23T06:09:28;100812.84;;;4.92;100.00
37202;BME280;37799;52.390;6.136;2024-03-23T06:11:56;100806.00;;;4.98;100.00
37202;BME280;37799;52.390;6.136;2024-03-23T06:14:21;100815.41;;;4.92;100.00
37202;BME280;37799;52.390;6.136;2024-03-23T06:16:47;100809.38;;;5.03;100.00
37202;BME280;37799;52.390;6.136;2024-03-23T06:19:12;100821.34;;;5.06;100.00
37202;BME280;37799;52.390;6.136;2024-03-23T06:21:43;100840.84;;;5.47;100.00
37202;BME280;37799;52.390;6.136;2024-03-23T06:24:08;100835.66;;;5.59;100.00
37202;BME280;37799;52.390;6.136;2024-03-23T06:26:33;100821.97;;;5.57;100.00
37202;BME280;37799;52.390;6.136;2024-03-23T06:28:59;100820.28;;;5.53;100.00
37202;BME280;37799;52.390;6.136;2024-03-23T06:31:24;100845.22;;;5.31;100.00
37202;BME280;37799;52.390;6.136;2024-03-23T06:33:49;100836.63;;;5.40;100.00
37202;BME280;37799;52.390;6.136;2024-03-23T06:36:14;100839.25;;;5.27;100.00
37202;BME280;37799;52.390;6.136;2024-03-23T06:38:40;100825.59;;;5.18;100.00
37202;BME280;37799;52.390;6.136;2024-03-23T06:41:05;100829.06;;;5.12;100.00
37202;BME280;37799;52.390;6.136;2024-03-23T06:43:31;100827.38;;;5.08;100.00
37202;BME280;37799;52.390;6.136;2024-03-23T06:45:56;100825.66;;;5.01;100.00
37202;BME280;37799;52.390;6.136;2024-03-23T06:48:22;100823.91;;;5.12;100.00
37202;BME280;37799;52.390;6.136;2024-03-23T06:50:47;100820.50;;;5.10;100.00
37202;BME280;37799;52.390;6.136;2024-03-23T06:53:14;100817.91;;;5.21;100.00
37202;BME280;37799;52.390;6.136;2024-03-23T06:55:39;100818.72;;;5.24;100.00
37202;BME280;37799;52.390;6.136;2024-03-23T06:58:05;100825.56;;;5.25;100.00
37202;BME280;37799;52.390;6.136;2024-03-23T07:00:30;100828.94;;;5.40;100.00
37202;BME280;37799;52.390;6.136;2024-03-23T07:02:57;100832.41;;;5.28;100.00
37202;BME280;37799;52.390;6.136;2024-03-23T07:05:22;100832.44;;;5.23;100.00
37202;BME280;37799;52.390;6.136;2024-03-23T07:07:47;100823.84;;;5.27;100.00
37202;BME280;37799;52.390;6.136;2024-03-23T07:10:13;100822.22;;;5.08;100.00
37202;BME280;37799;52.390;6.136;2024-03-23T07:12:38;100818.75;;;5.18;100.00
37202;BME280;37799;52.390;6.136;2024-03-23T07:15:04;100822.13;;;5.26;100.00
37202;BME280;37799;52.390;6.136;2024-03-23T07:17:29;100818.75;;;5.21;100.00
37202;BME280;37799;52.390;6.136;2024-03-23T07:19:54;100819.56;;;5.29;100.00
37202;BME280;37799;52.390;6.136;2024-03-23T07:22:20;100820.44;;;5.25;100.00
37202;BME280;37799;52.390;6.136;2024-03-23T07:24:45;100808.50;;;5.12;100.00
37202;BME280;37799;52.390;6.136;2024-03-23T07:27:10;100813.66;;;5.12;100.00
37202;BME280;37799;52.390;6.136;2024-03-23T07:29:36;100804.91;;;5.47;100.00
37202;BME280;37799;52.390;6.136;2024-03-23T07:32:02;100791.84;;;5.82;100.00
37202;BME280;37799;52.390;6.136;2024-03-23T07:34:27;100798.44;;;6.18;100.00
37202;BME280;37799;52.390;6.136;2024-03-23T07:36:52;100798.88;;;6.64;100.00
37202;BME280;37799;52.390;6.136;2024-03-23T07:39:18;100803.53;;;7.07;100.00
37202;BME280;37799;52.390;6.136;2024-03-23T07:41:46;100807.22;;;7.54;100.00
37202;BME280;37799;52.390;6.136;2024-03-23T07:44:12;100805.13;;;7.79;100.00
37202;BME280;37799;52.390;6.136;2024-03-23T07:46:37;100804.03;;;7.95;100.00
37202;BME280;37799;52.390;6.136;2024-03-23T07:49:04;100804.94;;;7.91;100.00
37202;BME280;37799;52.390;6.136;2024-03-23T07:51:29;100804.88;;;7.97;100.00
37202;BME280;37799;52.390;6.136;2024-03-23T07:53:55;100806.34;;;8.12;100.00
37202;BME280;37799;52.390;6.136;2024-03-23T07:56:20;100799.69;;;7.98;100.00
37202;BME280;37799;52.390;6.136;2024-03-23T07:58:47;100807.09;;;8.18;100.00
37202;BME280;37799;52.390;6.136;2024-03-23T08:01:15;100798.03;;;8.45;100.00
37202;BME280;37799;52.390;6.136;2024-03-23T08:03:42;100812.88;;;8.82;100.00
37202;BME280;37799;52.390;6.136;2024-03-23T08:06:08;100814.59;;;8.81;100.00
37202;BME280;37799;52.390;6.136;2024-03-23T08:08:34;100803.00;;;8.57;100.00
37202;BME280;37799;52.390;6.136;2024-03-23T08:11:00;100805.00;;;8.42;100.00
37202;BME280;37799;52.390;6.136;2024-03-23T08:13:26;100795.78;;;8.25;100.00
37202;BME280;37799;52.390;6.136;2024-03-23T08:15:52;100801.16;;;8.13;100.00
37202;BME280;37799;52.390;6.136;2024-03-23T08:18:17;100798.53;;;8.16;100.00
37202;BME280;37799;52.390;6.136;2024-03-23T08:20:42;100795.09;;;8.16;100.00
37202;BME280;37799;52.390;6.136;2024-03-23T08:23:08;100794.06;;;8.26;100.00
37202;BME280;37799;52.390;6.136;2024-03-23T08:25:34;100788.13;;;8.22;100.00
37202;BME280;37799;52.390;6.136;2024-03-23T08:28:00;100788.03;;;8.27;100.00
37202;BME280;37799;52.390;6.136;2024-03-23T08:30:25;100790.03;;;8.62;100.00
37202;BME280;37799;52.390;6.136;2024-03-23T08:32:51;100791.59;;;8.69;100.00
37202;BME280;37799;52.390;6.136;2024-03-23T08:35:16;100796.56;;;8.80;100.00
37202;BME280;37799;52.390;6.136;2024-03-23T08:37:42;100785.78;;;9.03;100.00
37202;BME280;37799;52.390;6.136;2024-03-23T08:40:08;100775.56;;;9.37;100.00
37202;BME280;37799;52.390;6.136;2024-03-23T08:42:34;100777.28;;;9.77;100.00
37202;BME280;37799;52.390;6.136;2024-03-23T08:44:59;100768.03;;;9.66;100.00
37202;BME280;37799;52.390;6.136;2024-03-23T08:47:24;100784.31;;;9.31;100.00
37202;BME280;37799;52.390;6.136;2024-03-23T08:49:50;100778.97;;;8.97;100.00
37202;BME280;37799;52.390;6.136;2024-03-23T08:52:15;100778.97;;;8.54;100.00
37202;BME280;37799;52.390;6.136;2024-03-23T08:54:41;100778.25;;;8.47;100.00
37202;BME280;37799;52.390;6.136;2024-03-23T08:57:06;100793.94;;;8.35;100.00
37202;BME280;37799;52.390;6.136;2024-03-23T08:59:32;100784.66;;;8.23;100.00
37202;BME280;37799;52.390;6.136;2024-03-23T09:01:58;100785.59;;;8.67;100.00
37202;BME280;37799;52.390;6.136;2024-03-23T09:04:23;100800.66;;;8.90;100.00
37202;BME280;37799;52.390;6.136;2024-03-23T09:06:48;100800.69;;;8.89;100.00
37202;BME280;37799;52.390;6.136;2024-03-23T09:09:14;100793.66;;;9.38;100.00
37202;BME280;37799;52.390;6.136;2024-03-23T09:11:39;100787.75;;;9.32;100.00
37202;BME280;37799;52.390;6.136;2024-03-23T09:14:04;100793.88;;;9.66;100.00
37202;BME280;37799;52.390;6.136;2024-03-23T09:16:30;100784.31;;;9.70;100.00
37202;BME280;37799;52.390;6.136;2024-03-23T09:18:55;100790.44;;;9.66;100.00
37202;BME280;37799;52.390;6.136;2024-03-23T09:21:20;100786.00;;;9.71;100.00
37202;BME280;37799;52.390;6.136;2024-03-23T09:23:46;100782.88;;;9.57;100.00
37202;BME280;37799;52.390;6.136;2024-03-23T09:26:12;100785.44;;;9.95;100.00
37202;BME280;37799;52.390;6.136;2024-03-23T09:28:37;100788.25;;;10.22;100.00
37202;BME280;37799;52.390;6.136;2024-03-23T09:31:06;100788.84;;;10.33;100.00
37202;BME280;37799;52.390;6.136;2024-03-23T09:33:32;100798.31;;;10.34;100.00
37202;BME280;37799;52.390;6.136;2024-03-23T09:35:58;100778.84;;;10.52;100.00
37202;BME280;37799;52.390;6.136;2024-03-23T09:38:27;100791.25;;;11.03;100.00
37202;BME280;37799;52.390;6.136;2024-03-23T09:40:53;100792.53;;;10.88;100.00
37202;BME280;37799;52.390;6.136;2024-03-23T09:43:19;100776.19;;;11.15;100.00
37202;BME280;37799;52.390;6.136;2024-03-23T09:45:45;100784.44;;;11.58;100.00
37202;BME280;37799;52.390;6.136;2024-03-23T09:48:11;100779.81;;;11.67;100.00
37202;BME280;37799;52.390;6.136;2024-03-23T09:50:40;100782.06;;;11.78;98.69
37202;BME280;37799;52.390;6.136;2024-03-23T09:53:07;100784.81;;;11.73;92.09
37202;BME280;37799;52.390;6.136;2024-03-23T09:55:33;100783.41;;;11.63;90.48
37202;BME280;37799;52.390;6.136;2024-03-23T09:57:59;100787.34;;;10.88;89.01
37202;BME280;37799;52.390;6.136;2024-03-23T10:00:24;100793.53;;;10.51;96.03
37202;BME280;37799;52.390;6.136;2024-03-23T10:02:50;100815.38;;;9.28;100.00
37202;BME280;37799;52.390;6.136;2024-03-23T10:05:22;100806.63;;;8.46;100.00
37202;BME280;37799;52.390;6.136;2024-03-23T10:07:51;100818.38;;;8.11;100.00
37202;BME280;37799;52.390;6.136;2024-03-23T10:10:17;100804.19;;;7.84;100.00
37202;BME280;37799;52.390;6.136;2024-03-23T10:12:49;100794.41;;;7.49;100.00
37202;BME280;37799;52.390;6.136;2024-03-23T10:15:24;100774.88;;;7.33;100.00
37202;BME280;37799;52.390;6.136;2024-03-23T10:17:51;100766.59;;;7.09;100.00
37202;BME280;37799;52.390;6.136;2024-03-23T10:20:21;100768.25;;;7.17;100.00
37202;BME280;37799;52.390;6.136;2024-03-23T10:22:47;100770.88;;;7.72;100.00
37202;BME280;37799;52.390;6.136;2024-03-23T10:25:13;100773.25;;;8.38;100.00
37202;BME280;37799;52.390;6.136;2024-03-23T10:27:39;100787.69;;;8.93;100.00
37202;BME280;37799;52.390;6.136;2024-03-23T10:32:34;100782.59;;;10.40;100.00
37202;BME280;37799;52.390;6.136;2024-03-23T10:35:19;100786.84;;;10.75;100.00
37202;BME280;37799;52.390;6.136;2024-03-23T10:37:45;100788.06;;;10.93;100.00
37202;BME280;37799;52.390;6.136;2024-03-23T10:40:17;100796.47;;;11.01;100.00
37202;BME280;37799;52.390;6.136;2024-03-23T10:42:46;100786.31;;;11.25;100.00
37202;BME280;37799;52.390;6.136;2024-03-23T10:45:11;100788.97;;;10.92;100.00
37202;BME280;37799;52.390;6.136;2024-03-23T10:47:37;100791.28;;;10.72;100.00
37202;BME280;37799;52.390;6.136;2024-03-23T10:50:06;100804.78;;;10.50;100.00
37202;BME280;37799;52.390;6.136;2024-03-23T10:52:35;100818.28;;;9.55;100.00
37202;BME280;37799;52.390;6.136;2024-03-23T10:55:05;100793.75;;;8.44;100.00
37202;BME280;37799;52.390;6.136;2024-03-23T10:57:40;100791.72;;;8.12;100.00
37202;BME280;37799;52.390;6.136;2024-03-23T11:00:07;100780.59;;;7.53;100.00
37202;BME280;37799;52.390;6.136;2024-03-23T11:02:33;100777.66;;;7.18;100.00
37202;BME280;37799;52.390;6.136;2024-03-23T11:04:58;100771.28;;;7.45;100.00
37202;BME280;37799;52.390;6.136;2024-03-23T11:09:50;100775.28;;;8.67;100.00
37202;BME280;37799;52.390;6.136;2024-03-23T11:14:50;100783.88;;;9.11;100.00
37202;BME280;37799;52.390;6.136;2024-03-23T11:17:23;100771.31;;;9.73;100.00
37202;BME280;37799;52.390;6.136;2024-03-23T11:20:04;100779.69;;;10.18;100.00
37202;BME280;37799;52.390;6.136;2024-03-23T11:25:21;100769.56;;;10.09;100.00
37202;BME280;37799;52.390;6.136;2024-03-23T11:27:48;100770.63;;;10.36;100.00
37202;BME280;37799;52.390;6.136;2024-03-23T11:30:21;100767.53;;;10.54;100.00
37202;BME280;37799;52.390;6.136;2024-03-23T11:32:48;100774.31;;;10.60;100.00
37202;BME280;37799;52.390;6.136;2024-03-23T11:35:31;100755.91;;;11.00;100.00
37202;BME280;37799;52.390;6.136;2024-03-23T11:40:31;100767.31;;;10.95;100.00
37202;BME280;37799;52.390;6.136;2024-03-23T11:42:58;100767.97;;;11.01;100.00
37202;BME280;37799;52.390;6.136;2024-03-23T11:45:24;100790.00;;;10.86;100.00
37202;BME280;37799;52.390;6.136;2024-03-23T11:48:01;100808.19;;;9.42;100.00
37202;BME280;37799;52.390;6.136;2024-03-23T11:50:27;100802.06;;;7.52;100.00
37202;BME280;37799;52.390;6.136;2024-03-23T11:52:52;100788.59;;;6.63;100.00
37202;BME280;37799;52.390;6.136;2024-03-23T11:55:18;100788.38;;;5.89;100.00
37202;BME280;37799;52.390;6.136;2024-03-23T11:57:43;100773.19;;;5.60;100.00
37202;BME280;37799;52.390;6.136;2024-03-23T12:00:21;100773.94;;;5.71;100.00
37202;BME280;37799;52.390;6.136;2024-03-23T12:02:47;100755.00;;;5.90;100.00
37202;BME280;37799;52.390;6.136;2024-03-23T12:05:14;100747.06;;;6.12;100.00
37202;BME280;37799;52.390;6.136;2024-03-23T12:07:40;100753.63;;;6.45;100.00
37202;BME280;37799;52.390;6.136;2024-03-23T12:10:06;100738.53;;;6.91;100.00
37202;BME280;37799;52.390;6.136;2024-03-23T12:12:31;100740.66;;;7.23;100.00
37202;BME280;37799;52.390;6.136;2024-03-23T12:15:05;100738.06;;;7.83;100.00
37202;BME280;37799;52.390;6.136;2024-03-23T12:17:31;100735.72;;;8.20;100.00
37202;BME280;37799;52.390;6.136;2024-03-23T12:19:56;100728.25;;;8.53;100.00
37202;BME280;37799;52.390;6.136;2024-03-23T12:22:22;100734.25;;;8.53;100.00
37202;BME280;37799;52.390;6.136;2024-03-23T12:24:48;100735.41;;;8.39;100.00
37202;BME280;37799;52.390;6.136;2024-03-23T12:27:14;100737.19;;;8.35;100.00
37202;BME280;37799;52.390;6.136;2024-03-23T12:29:40;100726.72;;;8.43;100.00
37202;BME280;37799;52.390;6.136;2024-03-23T12:32:11;100726.09;;;8.75;100.00
37202;BME280;37799;52.390;6.136;2024-03-23T12:34:37;100715.84;;;9.12;100.00
37202;BME280;37799;52.390;6.136;2024-03-23T12:37:02;100716.16;;;9.35;100.00
37202;BME280;37799;52.390;6.136;2024-03-23T12:39:28;100722.22;;;9.71;100.00
37202;BME280;37799;52.390;6.136;2024-03-23T12:41:53;100728.88;;;10.16;100.00
37202;BME280;37799;52.390;6.136;2024-03-23T12:44:19;100718.09;;;9.98;100.00
37202;BME280;37799;52.390;6.136;2024-03-23T12:46:44;100727.63;;;9.96;100.00
37202;BME280;37799;52.390;6.136;2024-03-23T12:49:10;100714.25;;;10.13;100.00
37202;BME280;37799;52.390;6.136;2024-03-23T12:51:36;100738.75;;;10.00;98.08
37202;BME280;37799;52.390;6.136;2024-03-23T12:54:01;100740.47;;;9.99;99.47
37202;BME280;37799;52.390;6.136;2024-03-23T12:56:27;100731.41;;;9.83;100.00
37202;BME280;37799;52.390;6.136;2024-03-23T12:58:56;100729.28;;;9.63;100.00
37202;BME280;37799;52.390;6.136;2024-03-23T13:01:25;100718.50;;;9.46;100.00
37202;BME280;37799;52.390;6.136;2024-03-23T13:03:51;100718.47;;;9.48;100.00
37202;BME280;37799;52.390;6.136;2024-03-23T13:06:17;100716.41;;;9.62;100.00
37202;BME280;37799;52.390;6.136;2024-03-23T13:08:46;100711.88;;;10.05;100.00
37202;BME280;37799;52.390;6.136;2024-03-23T13:11:13;100720.38;;;10.45;100.00
37202;BME280;37799;52.390;6.136;2024-03-23T13:13:39;100728.78;;;10.19;100.00
37202;BME280;37799;52.390;6.136;2024-03-23T13:16:05;100729.44;;;9.57;100.00
37202;BME280;37799;52.390;6.136;2024-03-23T13:18:31;100736.44;;;8.75;100.00
37202;BME280;37799;52.390;6.136;2024-03-23T13:20:57;100722.50;;;8.39;100.00
37202;BME280;37799;52.390;6.136;2024-03-23T13:23:23;100707.56;;;8.54;100.00
37202;BME280;37799;52.390;6.136;2024-03-23T13:25:52;100711.69;;;8.63;100.00
37202;BME280;37799;52.390;6.136;2024-03-23T13:28:18;100725.09;;;8.80;100.00
37202;BME280;37799;52.390;6.136;2024-03-23T13:30:54;100725.66;;;8.53;100.00
37202;BME280;37799;52.390;6.136;2024-03-23T13:33:19;100740.63;;;8.36;100.00
37202;BME280;37799;52.390;6.136;2024-03-23T13:35:54;100764.94;;;7.68;100.00
37202;BME280;37799;52.390;6.136;2024-03-23T13:38:21;100761.94;;;7.36;100.00
37202;BME280;37799;52.390;6.136;2024-03-23T13:40:54;100757.19;;;7.08;100.00
37202;BME280;37799;52.390;6.136;2024-03-23T13:43:19;100758.84;;;7.11;100.00
37202;BME280;37799;52.390;6.136;2024-03-23T13:45:51;100767.63;;;6.96;100.00
37202;BME280;37799;52.390;6.136;2024-03-23T13:48:19;100751.25;;;7.03;100.00
37202;BME280;37799;52.390;6.136;2024-03-23T13:50:44;100756.53;;;6.93;100.00